sensor_id;sensor_type;location;lat;lon;timestamp;P1;durP1;ratioP1;P2;durP2;ratioP2
79399;SDS011;68856;45.586;10.264;2023-10-09T00:01:45;18.17;;;5.28;;
79399;SDS011;68856;45.586;10.264;2023-10-09T00:04:11;13.40;;;4.35;;
79399;SDS011;68856;45.586;10.264;2023-10-09T00:06:39;12.02;;;4.70;;
79399;SDS011;68856;45.586;10.264;2023-10-09T00:09:07;10.32;;;4.05;;
79399;SDS011;68856;45.586;10.264;2023-10-09T00:11:53;12.90;;;4.63;;
79399;SDS011;68856;45.586;10.264;2023-10-09T00:14:25;10.48;;;5.18;;
79399;SDS011;68856;45.586;10.264;2023-10-09T00:16:52;8.90;;;5.00;;
79399;SDS011;68856;45.586;10.264;2023-10-09T00:19:41;13.25;;;3.92;;
79399;SDS011;68856;45.586;10.264;2023-10-09T00:22:08;15.25;;;4.45;;
79399;SDS011;68856;45.586;10.264;2023-10-09T00:24:51;9.18;;;4.43;;
79399;SDS011;68856;45.586;10.264;2023-10-09T00:27:35;14.45;;;4.55;;
79399;SDS011;68856;45.586;10.264;2023-10-09T00:30:01;11.48;;;4.50;;
79399;SDS011;68856;45.586;10.264;2023-10-09T00:32:31;10.40;;;4.65;;
79399;SDS011;68856;45.586;10.264;2023-10-09T00:35:02;10.57;;;4.68;;
79399;SDS011;68856;45.586;10.264;2023-10-09T00:37:48;8.57;;;4.47;;
79399;SDS011;68856;45.586;10.264;2023-10-09T00:40:17;10.15;;;4.43;;
79399;SDS011;68856;45.586;10.264;2023-10-09T00:42:48;11.90;;;4.63;;
79399;SDS011;68856;45.586;10.264;2023-10-09T00:45:14;13.43;;;4.63;;
79399;SDS011;68856;45.586;10.264;2023-10-09T00:47:50;7.65;;;4.35;;
79399;SDS011;68856;45.586;10.264;2023-10-09T00:50:16;12.63;;;4.90;;
79399;SDS011;68856;45.586;10.264;2023-10-09T00:52:46;9.88;;;5.25;;
79399;SDS011;68856;45.586;10.264;2023-10-09T00:55:19;10.27;;;4.68;;
79399;SDS011;68856;45.586;10.264;2023-10-09T00:58:01;17.25;;;4.80;;
79399;SDS011;68856;45.586;10.264;2023-10-09T01:00:30;9.43;;;4.88;;
79399;SDS011;68856;45.586;10.264;2023-10-09T01:03:00;10.85;;;4.60;;
79399;SDS011;68856;45.586;10.264;2023-10-09T01:08:18;11.95;;;4.72;;
79399;SDS011;68856;45.586;10.264;2023-10-09T01:11:03;11.18;;;4.22;;
79399;SDS011;68856;45.586;10.264;2023-10-09T01:13:49;8.88;;;4.10;;
79399;SDS011;68856;45.586;10.264;2023-10-09T01:16:22;14.05;;;4.65;;
79399;SDS011;68856;45.586;10.264;2023-10-09T01:18:50;13.23;;;4.80;;
79399;SDS011;68856;45.586;10.264;2023-10-09T01:21:16;10.77;;;4.60;;
79399;SDS011;68856;45.586;10.264;2023-10-09T01:23:46;14.05;;;5.80;;
79399;SDS011;68856;45.586;10.264;2023-10-09T01:26:46;12.65;;;4.45;;
79399;SDS011;68856;45.586;10.264;2023-10-09T01:29:19;9.98;;;4.35;;
79399;SDS011;68856;45.586;10.264;2023-10-09T01:31:52;10.68;;;5.03;;
79399;SDS011;68856;45.586;10.264;2023-10-09T01:34:25;16.13;;;3.97;;
79399;SDS011;68856;45.586;10.264;2023-10-09T01:37:25;9.65;;;4.60;;
79399;SDS011;68856;45.586;10.264;2023-10-09T01:39:56;11.80;;;5.15;;
79399;SDS011;68856;45.586;10.264;2023-10-09T01:42:23;16.33;;;4.75;;
79399;SDS011;68856;45.586;10.264;2023-10-09T01:44:49;11.98;;;4.50;;
79399;SDS011;68856;45.586;10.264;2023-10-09T01:47:15;10.52;;;3.97;;
79399;SDS011;68856;45.586;10.264;2023-10-09T01:49:44;11.65;;;4.90;;
79399;SDS011;68856;45.586;10.264;2023-10-09T01:52:14;11.88;;;4.72;;
79399;SDS011;68856;45.586;10.264;2023-10-09T01:54:44;14.27;;;4.77;;
79399;SDS011;68856;45.586;10.264;2023-10-09T01:57:14;12.40;;;4.50;;
79399;SDS011;68856;45.586;10.264;2023-10-09T01:59:46;16.67;;;4.63;;
79399;SDS011;68856;45.586;10.264;2023-10-09T02:02:14;12.82;;;4.00;;
79399;SDS011;68856;45.586;10.264;2023-10-09T02:04:50;9.73;;;4.05;;
79399;SDS011;68856;45.586;10.264;2023-10-09T02:07:17;9.60;;;4.35;;
79399;SDS011;68856;45.586;10.264;2023-10-09T02:09:52;11.80;;;4.25;;
79399;SDS011;68856;45.586;10.264;2023-10-09T02:12:19;11.60;;;5.22;;
79399;SDS011;68856;45.586;10.264;2023-10-09T02:14:47;11.93;;;4.68;;
79399;SDS011;68856;45.586;10.264;2023-10-09T02:17:13;9.43;;;4.07;;
79399;SDS011;68856;45.586;10.264;2023-10-09T02:19:45;11.63;;;4.57;;
79399;SDS011;68856;45.586;10.264;2023-10-09T02:22:14;15.05;;;4.22;;
79399;SDS011;68856;45.586;10.264;2023-10-09T02:24:42;8.32;;;3.92;;
79399;SDS011;68856;45.586;10.264;2023-10-09T02:27:23;10.02;;;4.50;;
79399;SDS011;68856;45.586;10.264;2023-10-09T02:30:12;13.70;;;4.65;;
79399;SDS011;68856;45.586;10.264;2023-10-09T02:32:45;14.23;;;4.75;;
79399;SDS011;68856;45.586;10.264;2023-10-09T02:35:17;12.20;;;4.88;;
79399;SDS011;68856;45.586;10.264;2023-10-09T02:37:53;15.60;;;5.30;;
79399;SDS011;68856;45.586;10.264;2023-10-09T02:40:19;13.48;;;4.53;;
79399;SDS011;68856;45.586;10.264;2023-10-09T02:42:56;12.75;;;4.35;;
79399;SDS011;68856;45.586;10.264;2023-10-09T02:45:23;16.60;;;5.00;;
79399;SDS011;68856;45.586;10.264;2023-10-09T02:47:49;13.98;;;4.40;;
79399;SDS011;68856;45.586;10.264;2023-10-09T02:50:16;12.73;;;4.53;;
79399;SDS011;68856;45.586;10.264;2023-10-09T02:52:48;10.90;;;4.28;;
79399;SDS011;68856;45.586;10.264;2023-10-09T02:55:24;11.48;;;4.50;;
79399;SDS011;68856;45.586;10.264;2023-10-09T02:57:53;9.05;;;4.53;;
79399;SDS011;68856;45.586;10.264;2023-10-09T03:00:36;13.20;;;4.88;;
79399;SDS011;68856;45.586;10.264;2023-10-09T03:03:05;15.98;;;5.00;;
79399;SDS011;68856;45.586;10.264;2023-10-09T03:05:32;13.27;;;4.65;;
79399;SDS011;68856;45.586;10.264;2023-10-09T03:07:59;11.30;;;3.88;;
79399;SDS011;68856;45.586;10.264;2023-10-09T03:10:25;10.27;;;4.40;;
79399;SDS011;68856;45.586;10.264;2023-10-09T03:12:51;17.30;;;4.75;;
79399;SDS011;68856;45.586;10.264;2023-10-09T03:15:20;11.32;;;5.47;;
79399;SDS011;68856;45.586;10.264;2023-10-09T03:17:47;14.88;;;4.53;;
79399;SDS011;68856;45.586;10.264;2023-10-09T03:20:13;10.82;;;4.13;;
79399;SDS011;68856;45.586;10.264;2023-10-09T03:22:42;11.45;;;4.30;;
79399;SDS011;68856;45.586;10.264;2023-10-09T03:25:10;9.88;;;4.00;;
79399;SDS011;68856;45.586;10.264;2023-10-09T03:27:42;10.73;;;3.97;;
79399;SDS011;68856;45.586;10.264;2023-10-09T03:30:14;14.38;;;3.88;;
79399;SDS011;68856;45.586;10.264;2023-10-09T03:32:45;11.18;;;3.65;;
79399;SDS011;68856;45.586;10.264;2023-10-09T03:35:19;14.90;;;4.40;;
79399;SDS011;68856;45.586;10.264;2023-10-09T03:37:59;11.57;;;3.90;;
79399;SDS011;68856;45.586;10.264;2023-10-09T03:40:36;11.10;;;4.60;;
79399;SDS011;68856;45.586;10.264;2023-10-09T03:43:04;13.73;;;4.60;;
79399;SDS011;68856;45.586;10.264;2023-10-09T03:45:31;11.52;;;3.83;;
79399;SDS011;68856;45.586;10.264;2023-10-09T03:48:00;14.40;;;4.10;;
79399;SDS011;68856;45.586;10.264;2023-10-09T03:50:45;12.07;;;4.28;;
79399;SDS011;68856;45.586;10.264;2023-10-09T03:53:11;15.43;;;4.55;;
79399;SDS011;68856;45.586;10.264;2023-10-09T03:55:38;13.45;;;5.10;;
79399;SDS011;68856;45.586;10.264;2023-10-09T03:58:05;11.32;;;4.57;;
79399;SDS011;68856;45.586;10.264;2023-10-09T04:00:31;14.10;;;4.60;;
79399;SDS011;68856;45.586;10.264;2023-10-09T04:03:06;11.77;;;4.35;;
79399;SDS011;68856;45.586;10.264;2023-10-09T04:05:32;15.32;;;4.95;;
79399;SDS011;68856;45.586;10.264;2023-10-09T04:07:58;14.93;;;4.78;;
79399;SDS011;68856;45.586;10.264;2023-10-09T04:10:26;13.10;;;4.38;;
79399;SDS011;68856;45.586;10.264;2023-10-09T04:13:09;11.38;;;4.30;;
79399;SDS011;68856;45.586;10.264;2023-10-09T04:15:38;12.38;;;5.07;;
79399;SDS011;68856;45.586;10.264;2023-10-09T04:18:07;13.57;;;4.53;;
79399;SDS011;68856;45.586;10.264;2023-10-09T04:20:40;10.57;;;4.22;;
79399;SDS011;68856;45.586;10.264;2023-10-09T04:23:32;12.60;;;4.53;;
79399;SDS011;68856;45.586;10.264;2023-10-09T04:26:14;11.32;;;4.10;;
79399;SDS011;68856;45.586;10.264;2023-10-09T04:28:40;8.98;;;4.07;;
79399;SDS011;68856;45.586;10.264;2023-10-09T04:31:07;11.23;;;4.18;;
79399;SDS011;68856;45.586;10.264;2023-10-09T04:33:33;8.70;;;3.95;;
79399;SDS011;68856;45.586;10.264;2023-10-09T04:36:06;9.45;;;4.05;;
79399;SDS011;68856;45.586;10.264;2023-10-09T04:38:52;10.13;;;4.28;;
79399;SDS011;68856;45.586;10.264;2023-10-09T04:41:23;13.57;;;3.92;;
79399;SDS011;68856;45.586;10.264;2023-10-09T04:43:53;14.02;;;4.22;;
79399;SDS011;68856;45.586;10.264;2023-10-09T04:46:30;15.52;;;4.97;;
79399;SDS011;68856;45.586;10.264;2023-10-09T04:49:09;14.93;;;4.07;;
79399;SDS011;68856;45.586;10.264;2023-10-09T04:51:53;13.45;;;4.32;;
79399;SDS011;68856;45.586;10.264;2023-10-09T04:54:46;16.75;;;4.85;;
79399;SDS011;68856;45.586;10.264;2023-10-09T04:57:31;11.15;;;4.68;;
79399;SDS011;68856;45.586;10.264;2023-10-09T05:00:04;12.82;;;4.90;;
79399;SDS011;68856;45.586;10.264;2023-10-09T05:02:32;15.70;;;4.40;;
79399;SDS011;68856;45.586;10.264;2023-10-09T05:05:02;12.63;;;4.35;;
79399;SDS011;68856;45.586;10.264;2023-10-09T05:07:53;14.25;;;4.70;;
79399;SDS011;68856;45.586;10.264;2023-10-09T05:10:22;11.52;;;4.03;;
79399;SDS011;68856;45.586;10.264;2023-10-09T05:12:51;12.07;;;4.88;;
79399;SDS011;68856;45.586;10.264;2023-10-09T05:15:23;13.25;;;4.68;;
79399;SDS011;68856;45.586;10.264;2023-10-09T05:17:59;13.35;;;4.75;;
79399;SDS011;68856;45.586;10.264;2023-10-09T05:20:34;12.02;;;4.22;;
79399;SDS011;68856;45.586;10.264;2023-10-09T05:23:19;15.55;;;4.70;;
79399;SDS011;68856;45.586;10.264;2023-10-09T05:25:51;10.00;;;4.72;;
79399;SDS011;68856;45.586;10.264;2023-10-09T05:28:23;14.10;;;4.68;;
79399;SDS011;68856;45.586;10.264;2023-10-09T05:30:59;14.48;;;4.32;;
79399;SDS011;68856;45.586;10.264;2023-10-09T05:33:35;14.13;;;4.03;;
79399;SDS011;68856;45.586;10.264;2023-10-09T05:36:02;17.17;;;4.63;;
79399;SDS011;68856;45.586;10.264;2023-10-09T05:38:47;15.90;;;4.30;;
79399;SDS011;68856;45.586;10.264;2023-10-09T05:41:27;19.95;;;5.32;;
79399;SDS011;68856;45.586;10.264;2023-10-09T05:44:10;18.50;;;4.78;;
79399;SDS011;68856;45.586;10.264;2023-10-09T05:46:55;20.92;;;5.40;;
79399;SDS011;68856;45.586;10.264;2023-10-09T05:49:39;13.88;;;4.65;;
79399;SDS011;68856;45.586;10.264;2023-10-09T05:52:12;19.38;;;5.68;;
79399;SDS011;68856;45.586;10.264;2023-10-09T05:54:56;13.15;;;4.57;;
79399;SDS011;68856;45.586;10.264;2023-10-09T05:57:41;18.42;;;5.93;;
79399;SDS011;68856;45.586;10.264;2023-10-09T06:00:25;15.98;;;6.05;;
79399;SDS011;68856;45.586;10.264;2023-10-09T06:03:11;20.88;;;4.93;;
79399;SDS011;68856;45.586;10.264;2023-10-09T06:05:46;26.05;;;5.85;;
79399;SDS011;68856;45.586;10.264;2023-10-09T06:08:23;17.58;;;5.20;;
79399;SDS011;68856;45.586;10.264;2023-10-09T06:10:52;16.67;;;4.63;;
79399;SDS011;68856;45.586;10.264;2023-10-09T06:13:32;14.43;;;5.00;;
79399;SDS011;68856;45.586;10.264;2023-10-09T06:16:06;18.13;;;5.22;;
79399;SDS011;68856;45.586;10.264;2023-10-09T06:18:45;19.05;;;4.70;;
79399;SDS011;68856;45.586;10.264;2023-10-09T06:21:32;10.15;;;4.15;;
79399;SDS011;68856;45.586;10.264;2023-10-09T06:24:07;19.88;;;6.45;;
79399;SDS011;68856;45.586;10.264;2023-10-09T06:26:43;17.98;;;6.47;;
79399;SDS011;68856;45.586;10.264;2023-10-09T06:29:25;20.55;;;6.72;;
79399;SDS011;68856;45.586;10.264;2023-10-09T06:32:06;23.33;;;7.18;;
79399;SDS011;68856;45.586;10.264;2023-10-09T06:34:59;24.15;;;6.97;;
79399;SDS011;68856;45.586;10.264;2023-10-09T06:37:42;19.73;;;6.43;;
79399;SDS011;68856;45.586;10.264;2023-10-09T06:40:26;20.15;;;6.28;;
79399;SDS011;68856;45.586;10.264;2023-10-09T06:43:05;29.92;;;6.75;;
79399;SDS011;68856;45.586;10.264;2023-10-09T06:45:47;24.10;;;6.07;;
79399;SDS011;68856;45.586;10.264;2023-10-09T06:48:19;25.85;;;6.32;;
79399;SDS011;68856;45.586;10.264;2023-10-09T06:51:05;48.70;;;7.93;;
79399;SDS011;68856;45.586;10.264;2023-10-09T06:53:53;37.42;;;7.53;;
79399;SDS011;68856;45.586;10.264;2023-10-09T06:56:20;28.30;;;5.32;;
79399;SDS011;68856;45.586;10.264;2023-10-09T06:58:55;22.45;;;5.03;;
79399;SDS011;68856;45.586;10.264;2023-10-09T07:01:29;18.52;;;4.20;;
79399;SDS011;68856;45.586;10.264;2023-10-09T07:04:07;10.73;;;4.05;;
79399;SDS011;68856;45.586;10.264;2023-10-09T07:06:46;14.38;;;4.13;;
79399;SDS011;68856;45.586;10.264;2023-10-09T07:09:12;12.00;;;4.03;;
79399;SDS011;68856;45.586;10.264;2023-10-09T07:11:39;10.88;;;3.63;;
79399;SDS011;68856;45.586;10.264;2023-10-09T07:14:08;24.92;;;6.10;;
79399;SDS011;68856;45.586;10.264;2023-10-09T07:16:54;22.88;;;5.30;;
79399;SDS011;68856;45.586;10.264;2023-10-09T07:19:26;24.17;;;5.68;;
79399;SDS011;68856;45.586;10.264;2023-10-09T07:22:04;22.77;;;5.85;;
79399;SDS011;68856;45.586;10.264;2023-10-09T07:24:41;19.88;;;5.93;;
79399;SDS011;68856;45.586;10.264;2023-10-09T07:27:17;21.17;;;5.47;;
79399;SDS011;68856;45.586;10.264;2023-10-09T07:30:03;26.90;;;5.28;;
79399;SDS011;68856;45.586;10.264;2023-10-09T07:32:49;19.48;;;5.50;;
79399;SDS011;68856;45.586;10.264;2023-10-09T07:35:17;24.45;;;5.45;;
79399;SDS011;68856;45.586;10.264;2023-10-09T07:38:03;23.98;;;5.50;;
79399;SDS011;68856;45.586;10.264;2023-10-09T07:40:32;18.30;;;4.78;;
79399;SDS011;68856;45.586;10.264;2023-10-09T07:43:17;28.05;;;4.90;;
79399;SDS011;68856;45.586;10.264;2023-10-09T07:45:43;21.50;;;4.72;;
79399;SDS011;68856;45.586;10.264;2023-10-09T07:48:15;19.48;;;5.00;;
79399;SDS011;68856;45.586;10.264;2023-10-09T07:50:41;21.10;;;5.22;;
79399;SDS011;68856;45.586;10.264;2023-10-09T07:53:16;28.98;;;5.90;;
79399;SDS011;68856;45.586;10.264;2023-10-09T07:55:52;15.23;;;3.97;;
79399;SDS011;68856;45.586;10.264;2023-10-09T07:58:31;20.97;;;4.43;;
79399;SDS011;68856;45.586;10.264;2023-10-09T08:01:11;9.27;;;3.87;;
79399;SDS011;68856;45.586;10.264;2023-10-09T08:03:56;17.20;;;4.38;;
79399;SDS011;68856;45.586;10.264;2023-10-09T08:06:25;17.80;;;4.13;;
79399;SDS011;68856;45.586;10.264;2023-10-09T08:09:04;14.07;;;3.80;;
79399;SDS011;68856;45.586;10.264;2023-10-09T08:11:44;16.13;;;3.92;;
79399;SDS011;68856;45.586;10.264;2023-10-09T08:14:13;17.40;;;3.90;;
79399;SDS011;68856;45.586;10.264;2023-10-09T08:16:46;16.38;;;3.88;;
79399;SDS011;68856;45.586;10.264;2023-10-09T08:19:12;19.35;;;3.63;;
79399;SDS011;68856;45.586;10.264;2023-10-09T08:21:57;15.93;;;3.50;;
79399;SDS011;68856;45.586;10.264;2023-10-09T08:25:02;19.40;;;4.63;;
79399;SDS011;68856;45.586;10.264;2023-10-09T08:27:29;15.25;;;3.65;;
79399;SDS011;68856;45.586;10.264;2023-10-09T08:29:59;16.73;;;3.53;;
79399;SDS011;68856;45.586;10.264;2023-10-09T08:32:45;15.88;;;4.35;;
79399;SDS011;68856;45.586;10.264;2023-10-09T08:35:43;15.23;;;4.10;;
79399;SDS011;68856;45.586;10.264;2023-10-09T08:38:13;19.85;;;4.55;;
79399;SDS011;68856;45.586;10.264;2023-10-09T08:40:40;12.77;;;3.92;;
79399;SDS011;68856;45.586;10.264;2023-10-09T08:45:34;19.67;;;4.05;;
79399;SDS011;68856;45.586;10.264;2023-10-09T08:48:01;17.23;;;4.20;;
79399;SDS011;68856;45.586;10.264;2023-10-09T08:50:30;16.38;;;4.10;;
79399;SDS011;68856;45.586;10.264;2023-10-09T08:52:56;19.38;;;5.10;;
79399;SDS011;68856;45.586;10.264;2023-10-09T08:55:22;22.15;;;4.82;;
79399;SDS011;68856;45.586;10.264;2023-10-09T08:57:48;19.58;;;4.95;;
79399;SDS011;68856;45.586;10.264;2023-10-09T09:00:17;20.42;;;4.38;;
79399;SDS011;68856;45.586;10.264;2023-10-09T09:02:49;14.70;;;4.63;;
79399;SDS011;68856;45.586;10.264;2023-10-09T09:05:18;15.23;;;4.47;;
79399;SDS011;68856;45.586;10.264;2023-10-09T09:07:45;16.13;;;4.40;;
79399;SDS011;68856;45.586;10.264;2023-10-09T09:10:13;20.58;;;4.43;;
79399;SDS011;68856;45.586;10.264;2023-10-09T09:12:45;19.10;;;4.30;;
79399;SDS011;68856;45.586;10.264;2023-10-09T09:15:15;21.75;;;4.53;;
79399;SDS011;68856;45.586;10.264;2023-10-09T09:17:44;19.13;;;4.15;;
79399;SDS011;68856;45.586;10.264;2023-10-09T09:22:55;20.60;;;5.75;;
79399;SDS011;68856;45.586;10.264;2023-10-09T09:25:22;19.35;;;4.07;;
79399;SDS011;68856;45.586;10.264;2023-10-09T09:27:56;19.70;;;4.38;;
79399;SDS011;68856;45.586;10.264;2023-10-09T09:30:30;13.50;;;4.25;;
79399;SDS011;68856;45.586;10.264;2023-10-09T09:32:58;14.15;;;4.18;;
79399;SDS011;68856;45.586;10.264;2023-10-09T09:35:55;15.90;;;4.13;;
79399;SDS011;68856;45.586;10.264;2023-10-09T09:38:22;17.52;;;4.95;;
79399;SDS011;68856;45.586;10.264;2023-10-09T09:40:48;20.95;;;4.05;;
79399;SDS011;68856;45.586;10.264;2023-10-09T09:45:48;14.77;;;4.25;;
79399;SDS011;68856;45.586;10.264;2023-10-09T09:48:17;20.67;;;4.32;;
79399;SDS011;68856;45.586;10.264;2023-10-09T09:50:44;21.10;;;4.50;;
79399;SDS011;68856;45.586;10.264;2023-10-09T09:53:14;16.17;;;4.05;;
79399;SDS011;68856;45.586;10.264;2023-10-09T09:55:50;16.50;;;4.38;;
79399;SDS011;68856;45.586;10.264;2023-10-09T09:58:23;26.15;;;4.47;;
79399;SDS011;68856;45.586;10.264;2023-10-09T10:00:50;17.67;;;4.40;;
79399;SDS011;68856;45.586;10.264;2023-10-09T10:03:19;17.13;;;4.50;;
79399;SDS011;68856;45.586;10.264;2023-10-09T10:05:48;20.83;;;4.65;;
79399;SDS011;68856;45.586;10.264;2023-10-09T10:08:16;14.40;;;4.40;;
79399;SDS011;68856;45.586;10.264;2023-10-09T10:10:45;15.07;;;4.40;;
79399;SDS011;68856;45.586;10.264;2023-10-09T10:16:09;16.23;;;3.80;;
79399;SDS011;68856;45.586;10.264;2023-10-09T10:18:54;14.82;;;4.07;;
79399;SDS011;68856;45.586;10.264;2023-10-09T10:21:25;16.85;;;3.70;;
79399;SDS011;68856;45.586;10.264;2023-10-09T10:23:57;13.05;;;3.47;;
79399;SDS011;68856;45.586;10.264;2023-10-09T10:26:39;12.00;;;3.50;;
79399;SDS011;68856;45.586;10.264;2023-10-09T10:29:19;11.48;;;3.35;;
79399;SDS011;68856;45.586;10.264;2023-10-09T10:32:06;18.80;;;4.22;;
79399;SDS011;68856;45.586;10.264;2023-10-09T10:37:38;18.70;;;4.65;;
79399;SDS011;68856;45.586;10.264;2023-10-09T10:40:24;19.02;;;4.40;;
79399;SDS011;68856;45.586;10.264;2023-10-09T10:43:03;17.83;;;4.13;;
79399;SDS011;68856;45.586;10.264;2023-10-09T10:45:39;19.98;;;4.90;;
79399;SDS011;68856;45.586;10.264;2023-10-09T10:50:56;12.77;;;4.32;;
79399;SDS011;68856;45.586;10.264;2023-10-09T10:53:22;15.77;;;3.95;;
79399;SDS011;68856;45.586;10.264;2023-10-09T10:58:18;26.17;;;5.72;;
79399;SDS011;68856;45.586;10.264;2023-10-09T11:01:04;18.13;;;4.10;;
79399;SDS011;68856;45.586;10.264;2023-10-09T11:03:39;19.25;;;4.40;;
79399;SDS011;68856;45.586;10.264;2023-10-09T11:06:39;18.17;;;4.70;;
79399;SDS011;68856;45.586;10.264;2023-10-09T11:09:07;17.77;;;4.78;;
79399;SDS011;68856;45.586;10.264;2023-10-09T11:11:35;15.90;;;4.30;;
79399;SDS011;68856;45.586;10.264;2023-10-09T11:14:12;17.77;;;5.35;;
79399;SDS011;68856;45.586;10.264;2023-10-09T11:16:58;20.00;;;4.78;;
79399;SDS011;68856;45.586;10.264;2023-10-09T11:19:28;25.25;;;5.35;;
79399;SDS011;68856;45.586;10.264;2023-10-09T11:21:58;18.23;;;5.68;;
79399;SDS011;68856;45.586;10.264;2023-10-09T11:24:31;22.67;;;5.43;;
79399;SDS011;68856;45.586;10.264;2023-10-09T11:27:03;20.17;;;5.00;;
79399;SDS011;68856;45.586;10.264;2023-10-09T11:29:32;20.60;;;4.47;;
79399;SDS011;68856;45.586;10.264;2023-10-09T11:32:08;23.80;;;4.55;;
79399;SDS011;68856;45.586;10.264;2023-10-09T11:34:42;19.55;;;4.75;;
79399;SDS011;68856;45.586;10.264;2023-10-09T11:37:16;22.80;;;5.30;;
79399;SDS011;68856;45.586;10.264;2023-10-09T11:40:03;27.88;;;5.65;;
79399;SDS011;68856;45.586;10.264;2023-10-09T11:42:48;20.55;;;5.53;;
79399;SDS011;68856;45.586;10.264;2023-10-09T11:45:21;20.08;;;4.82;;
79399;SDS011;68856;45.586;10.264;2023-10-09T11:47:54;17.87;;;4.30;;
79399;SDS011;68856;45.586;10.264;2023-10-09T11:50:39;16.65;;;4.53;;
79399;SDS011;68856;45.586;10.264;2023-10-09T11:53:14;15.32;;;4.47;;
79399;SDS011;68856;45.586;10.264;2023-10-09T11:55:49;19.88;;;4.53;;
79399;SDS011;68856;45.586;10.264;2023-10-09T11:58:21;23.02;;;4.63;;
79399;SDS011;68856;45.586;10.264;2023-10-09T12:00:53;19.13;;;4.88;;
79399;SDS011;68856;45.586;10.264;2023-10-09T12:03:43;27.02;;;4.55;;
79399;SDS011;68856;45.586;10.264;2023-10-09T12:06:14;21.10;;;4.72;;
79399;SDS011;68856;45.586;10.264;2023-10-09T12:08:44;17.48;;;4.97;;
79399;SDS011;68856;45.586;10.264;2023-10-09T12:11:12;22.02;;;5.03;;
79399;SDS011;68856;45.586;10.264;2023-10-09T12:13:40;20.70;;;4.78;;
79399;SDS011;68856;45.586;10.264;2023-10-09T12:16:10;25.58;;;5.38;;
79399;SDS011;68856;45.586;10.264;2023-10-09T12:18:40;24.30;;;5.18;;
79399;SDS011;68856;45.586;10.264;2023-10-09T12:21:07;26.23;;;5.82;;
79399;SDS011;68856;45.586;10.264;2023-10-09T12:23:40;19.58;;;4.93;;
79399;SDS011;68856;45.586;10.264;2023-10-09T12:26:09;16.95;;;4.95;;
79399;SDS011;68856;45.586;10.264;2023-10-09T12:28:39;22.77;;;5.80;;
79399;SDS011;68856;45.586;10.264;2023-10-09T12:31:05;18.15;;;4.95;;
79399;SDS011;68856;45.586;10.264;2023-10-09T12:33:32;17.75;;;5.05;;
79399;SDS011;68856;45.586;10.264;2023-10-09T12:35:58;26.45;;;5.53;;
79399;SDS011;68856;45.586;10.264;2023-10-09T12:38:29;14.98;;;5.32;;
79399;SDS011;68856;45.586;10.264;2023-10-09T12:41:02;17.23;;;6.65;;
79399;SDS011;68856;45.586;10.264;2023-10-09T12:43:34;16.42;;;6.80;;
79399;SDS011;68856;45.586;10.264;2023-10-09T12:48:31;21.98;;;8.40;;
79399;SDS011;68856;45.586;10.264;2023-10-09T12:50:57;25.17;;;7.78;;
79399;SDS011;68856;45.586;10.264;2023-10-09T12:53:23;19.38;;;10.32;;
79399;SDS011;68856;45.586;10.264;2023-10-09T12:55:53;20.08;;;12.05;;
79399;SDS011;68856;45.586;10.264;2023-10-09T12:58:21;27.20;;;12.13;;
79399;SDS011;68856;45.586;10.264;2023-10-09T13:00:48;22.50;;;10.70;;
79399;SDS011;68856;45.586;10.264;2023-10-09T13:03:14;23.20;;;12.23;;
79399;SDS011;68856;45.586;10.264;2023-10-09T13:08:20;17.15;;;12.43;;
79399;SDS011;68856;45.586;10.264;2023-10-09T13:13:12;20.08;;;9.98;;
79399;SDS011;68856;45.586;10.264;2023-10-09T13:15:38;21.52;;;8.50;;
79399;SDS011;68856;45.586;10.264;2023-10-09T13:18:08;21.05;;;8.98;;
79399;SDS011;68856;45.586;10.264;2023-10-09T13:20:34;27.52;;;9.65;;
79399;SDS011;68856;45.586;10.264;2023-10-09T13:23:01;21.65;;;8.02;;
79399;SDS011;68856;45.586;10.264;2023-10-09T13:25:27;21.52;;;7.63;;
79399;SDS011;68856;45.586;10.264;2023-10-09T13:28:04;24.50;;;5.85;;
79399;SDS011;68856;45.586;10.264;2023-10-09T13:30:31;20.77;;;6.32;;
79399;SDS011;68856;45.586;10.264;2023-10-09T13:33:04;19.52;;;5.70;;
79399;SDS011;68856;45.586;10.264;2023-10-09T13:35:30;18.77;;;5.15;;
79399;SDS011;68856;45.586;10.264;2023-10-09T13:38:03;17.65;;;5.72;;
79399;SDS011;68856;45.586;10.264;2023-10-09T13:40:34;23.73;;;5.90;;
79399;SDS011;68856;45.586;10.264;2023-10-09T13:43:02;18.40;;;4.57;;
79399;SDS011;68856;45.586;10.264;2023-10-09T13:45:30;26.52;;;5.88;;
79399;SDS011;68856;45.586;10.264;2023-10-09T13:47:58;19.23;;;5.00;;
79399;SDS011;68856;45.586;10.264;2023-10-09T13:50:24;19.23;;;5.57;;
79399;SDS011;68856;45.586;10.264;2023-10-09T13:52:57;15.30;;;4.63;;
79399;SDS011;68856;45.586;10.264;2023-10-09T13:55:23;26.23;;;5.60;;
79399;SDS011;68856;45.586;10.264;2023-10-09T13:57:56;17.05;;;5.25;;
79399;SDS011;68856;45.586;10.264;2023-10-09T14:00:22;23.20;;;5.38;;
79399;SDS011;68856;45.586;10.264;2023-10-09T14:02:59;22.27;;;5.38;;
79399;SDS011;68856;45.586;10.264;2023-10-09T14:05:37;21.23;;;5.32;;
79399;SDS011;68856;45.586;10.264;2023-10-09T14:08:09;19.65;;;5.47;;
79399;SDS011;68856;45.586;10.264;2023-10-09T14:10:38;17.45;;;4.85;;
79399;SDS011;68856;45.586;10.264;2023-10-09T14:13:05;14.85;;;5.03;;
79399;SDS011;68856;45.586;10.264;2023-10-09T14:15:37;17.20;;;4.72;;
79399;SDS011;68856;45.586;10.264;2023-10-09T14:18:08;21.85;;;5.47;;
79399;SDS011;68856;45.586;10.264;2023-10-09T14:20:39;19.08;;;6.15;;
79399;SDS011;68856;45.586;10.264;2023-10-09T14:23:06;18.58;;;5.32;;
79399;SDS011;68856;45.586;10.264;2023-10-09T14:25:36;22.73;;;5.38;;
79399;SDS011;68856;45.586;10.264;2023-10-09T14:30:33;22.85;;;5.65;;
79399;SDS011;68856;45.586;10.264;2023-10-09T14:33:07;22.52;;;5.68;;
79399;SDS011;68856;45.586;10.264;2023-10-09T14:35:37;22.27;;;5.72;;
79399;SDS011;68856;45.586;10.264;2023-10-09T14:38:04;18.20;;;4.97;;
79399;SDS011;68856;45.586;10.264;2023-10-09T14:40:37;19.70;;;4.75;;
79399;SDS011;68856;45.586;10.264;2023-10-09T14:43:07;17.95;;;4.95;;
79399;SDS011;68856;45.586;10.264;2023-10-09T14:45:36;19.65;;;5.22;;
79399;SDS011;68856;45.586;10.264;2023-10-09T14:50:28;18.98;;;4.68;;
79399;SDS011;68856;45.586;10.264;2023-10-09T14:52:54;21.00;;;5.15;;
79399;SDS011;68856;45.586;10.264;2023-10-09T14:55:20;13.75;;;4.40;;
79399;SDS011;68856;45.586;10.264;2023-10-09T14:57:53;24.13;;;5.13;;
79399;SDS011;68856;45.586;10.264;2023-10-09T15:00:20;19.50;;;5.43;;
79399;SDS011;68856;45.586;10.264;2023-10-09T15:02:51;20.40;;;5.57;;
79399;SDS011;68856;45.586;10.264;2023-10-09T15:05:17;24.75;;;5.05;;
79399;SDS011;68856;45.586;10.264;2023-10-09T15:07:43;22.10;;;4.95;;
79399;SDS011;68856;45.586;10.264;2023-10-09T15:10:10;16.42;;;4.72;;
79399;SDS011;68856;45.586;10.264;2023-10-09T15:12:40;16.52;;;4.30;;
79399;SDS011;68856;45.586;10.264;2023-10-09T15:15:08;23.20;;;5.20;;
79399;SDS011;68856;45.586;10.264;2023-10-09T15:17:42;22.60;;;4.90;;
79399;SDS011;68856;45.586;10.264;2023-10-09T15:20:12;17.50;;;5.50;;
79399;SDS011;68856;45.586;10.264;2023-10-09T15:22:42;21.05;;;4.38;;
79399;SDS011;68856;45.586;10.264;2023-10-09T15:25:08;21.48;;;5.00;;
79399;SDS011;68856;45.586;10.264;2023-10-09T15:27:39;20.02;;;6.05;;
79399;SDS011;68856;45.586;10.264;2023-10-09T15:30:06;23.85;;;5.15;;